Time;durP1;ratioP1;P1;durP2;ratioP2;P2;SDS_P1;SDS_P2;PMS_P1;PMS_P2;Temp;Humidity;BMP_temperature;BMP_pressure;BME280_temperature;BME280_humidity;BME280_pressure;Samples;Min_cycle;Max_cycle;Signal;HPM_P1;HPM_P2
2023/07/26 00:01:26;;;;;;;22.08;20.98;;;;;;;-141.02;63.09;43054.78;5133193;27;20216;-62
2023/07/26 00:03:58;;;;;;;22.50;21.40;;;;;;;-141.02;63.76;43026.00;5136951;27;20192;-67
2023/07/26 00:06:25;;;;;;;22.40;21.30;;;;;;;-141.02;64.02;43085.50;5136940;27;20193;-60
2023/07/26 00:08:52;;;;;;;21.70;20.60;;;;;;;-141.02;63.47;43102.78;5136436;27;20285;-62
2023/07/26 00:11:20;;;;;;;22.45;21.35;;;;;;;-141.02;63.84;43077.84;5136524;27;20224;-60
2023/07/26 00:14:08;;;;;;;22.30;21.20;;;;;;;-141.02;63.68;43077.84;5136495;27;20283;-65
2023/07/26 00:16:36;;;;;;;23.30;22.10;;;;;;;-141.02;65.01;43089.34;5136710;27;20200;-64
2023/07/26 00:19:03;;;;;;;23.60;22.40;;;;;;;-141.02;65.17;43085.50;5136309;27;20196;-60
2023/07/26 00:21:42;;;;;;;22.05;20.95;;;;;;;-141.02;64.21;43089.34;5136653;27;20271;-64
2023/07/26 00:24:15;;;;;;;22.55;21.45;;;;;;;-141.02;63.55;43097.03;5136609;27;20196;-67
2023/07/26 00:26:43;;;;;;;22.80;21.70;;;;;;;-141.02;63.90;43089.34;5136601;27;20192;-67
2023/07/26 00:29:14;;;;;;;22.55;21.45;;;;;;;-141.02;63.13;43114.31;5136066;27;20710;-59
2023/07/26 00:31:51;;;;;;;22.77;21.67;;;;;;;-141.02;63.43;43058.63;5136452;27;20199;-61
2023/07/26 00:34:20;;;;;;;22.67;21.58;;;;;;;-141.02;63.83;43041.34;5136080;27;20309;-61
2023/07/26 00:36:47;;;;;;;22.67;21.58;;;;;;;-141.02;64.59;43093.19;5134982;27;20224;-63
2023/07/26 00:39:15;;;;;;;23.20;22.00;;;;;;;-141.02;63.54;43162.31;5136312;27;20200;-65
2023/07/26 00:41:43;;;;;;;23.20;22.00;;;;;;;-141.02;62.44;43139.28;5136210;27;20276;-65
2023/07/26 00:44:10;;;;;;;23.30;22.10;;;;;;;-141.02;63.54;43146.94;5136200;27;20192;-66
2023/07/26 00:46:37;;;;;;;23.27;22.15;;;;;;;-141.02;63.55;43116.22;5135823;27;20231;-59
2023/07/26 00:49:07;;;;;;;22.50;21.40;;;;;;;-141.02;64.04;43135.44;5135751;27;20231;-67
2023/07/26 00:51:40;;;;;;;22.67;21.58;;;;;;;-141.02;63.72;43139.28;5135666;27;20193;-66
2023/07/26 00:54:21;;;;;;;22.40;21.30;;;;;;;-141.02;64.13;43137.34;5135721;27;20283;-66
2023/07/26 00:56:49;;;;;;;22.48;21.38;;;;;;;-141.02;64.42;43123.91;5135616;27;20200;-67
2023/07/26 00:59:20;;;;;;;22.77;21.67;;;;;;;-141.02;65.75;43066.31;5135607;27;20196;-65
2023/07/26 01:01:57;;;;;;;21.92;20.83;;;;;;;-141.02;65.57;43137.34;5135474;27;20730;-67
2023/07/26 01:04:24;;;;;;;23.00;21.90;;;;;;;-141.02;66.42;43116.22;5135544;27;20192;-67
2023/07/26 01:07:02;;;;;;;23.10;21.90;;;;;;;-141.02;67.44;43104.72;5135751;27;20283;-66
2023/07/26 01:09:37;;;;;;;22.88;21.77;;;;;;;-141.02;67.04;43133.50;5135718;27;20216;-64
2023/07/26 01:12:07;;;;;;;23.05;21.85;;;;;;;-141.02;66.94;43110.47;5135411;27;20223;-66
2023/07/26 01:14:40;;;;;;;22.52;21.42;;;;;;;-141.02;67.52;43081.66;5134591;27;20211;-66
2023/07/26 01:17:08;;;;;;;22.48;21.38;;;;;;;-141.02;68.18;43081.66;5135640;27;20267;-66
2023/07/26 01:19:56;;;;;;;21.83;20.73;;;;;;;-141.02;68.25;43064.41;5135679;27;20188;-66
2023/07/26 01:22:24;;;;;;;22.42;21.33;;;;;;;-141.02;69.09;43052.88;5135203;27;20622;-67
2023/07/26 01:24:51;;;;;;;22.40;21.30;;;;;;;-141.02;69.33;43043.28;5135165;27;20192;-67
2023/07/26 01:27:18;;;;;;;22.40;21.30;;;;;;;-141.02;69.90;43058.63;5135035;27;20224;-66
2023/07/26 01:29:45;;;;;;;22.23;21.13;;;;;;;-141.02;69.88;43039.44;5135329;27;20307;-62
2023/07/26 01:32:41;;;;;;;22.30;21.20;;;;;;;-141.02;69.61;43024.06;5135029;27;20738;-65
2023/07/26 01:35:48;;;;;;;22.42;21.33;;;;;;;-141.02;69.35;43016.41;5134982;27;20676;-60
2023/07/26 01:38:18;;;;;;;23.15;21.98;;;;;;;-141.02;69.31;43016.41;5134942;27;20674;-65
2023/07/26 01:40:55;;;;;;;22.05;20.95;;;;;;;-141.02;70.12;43026.00;5135233;27;20203;-67
2023/07/26 01:43:23;;;;;;;22.15;21.05;;;;;;;-141.02;70.15;43020.25;5135034;27;20199;-64
2023/07/26 01:45:49;;;;;;;20.45;19.45;;;;;;;-141.02;69.84;43037.50;5134705;27;20661;-64
2023/07/26 01:48:16;;;;;;;21.60;20.60;;;;;;;-141.02;70.59;43010.63;5134675;27;20749;-64
2023/07/26 01:50:43;;;;;;;21.50;20.50;;;;;;;-141.02;70.50;42983.75;5134782;27;20263;-63
2023/07/26 01:53:10;;;;;;;22.80;21.70;;;;;;;-141.02;70.67;42954.97;5134571;27;20202;-67
2023/07/26 01:55:58;;;;;;;22.13;21.05;;;;;;;-141.02;70.59;43012.56;5134474;27;20224;-66
2023/07/26 01:58:44;;;;;;;22.35;21.25;;;;;;;-141.02;70.22;43012.56;5134799;27;20229;-65
2023/07/26 02:01:11;;;;;;;21.92;20.83;;;;;;;-141.02;70.26;43004.88;5134726;27;20235;-64
2023/07/26 02:03:38;;;;;;;21.77;20.77;;;;;;;-141.02;70.30;43008.72;5134732;27;20228;-60
2023/07/26 02:06:05;;;;;;;22.15;21.15;;;;;;;-141.02;70.11;42989.53;5134586;27;20192;-64
2023/07/26 02:08:50;;;;;;;22.30;21.20;;;;;;;-141.02;70.19;42976.09;5134220;27;20189;-65
2023/07/26 02:11:24;;;;;;;21.20;20.20;;;;;;;-141.02;68.70;42985.69;5134463;27;20692;-60
2023/07/26 02:14:24;;;;;;;21.58;20.58;;;;;;;-141.02;69.52;42987.59;5134161;27;20198;-62
2023/07/26 02:16:50;;;;;;;21.73;20.73;;;;;;;-141.02;70.07;42983.75;5134102;27;20201;-64
2023/07/26 02:19:26;;;;;;;22.60;21.50;;;;;;;-141.02;70.09;42985.69;5134338;27;20295;-64
2023/07/26 02:21:53;;;;;;;21.45;20.45;;;;;;;-141.02;69.62;43039.44;5134341;27;20218;-62
2023/07/26 02:24:21;;;;;;;21.90;20.90;;;;;;;-141.02;69.92;43026.00;5134158;27;20276;-60
2023/07/26 02:26:49;;;;;;;22.17;21.08;;;;;;;-141.02;69.96;43024.06;5133897;27;20231;-63
2023/07/26 02:29:16;;;;;;;20.55;19.55;;;;;;;-141.02;69.40;43029.84;5133967;27;20196;-63
2023/07/26 02:31:43;;;;;;;21.77;20.77;;;;;;;-141.02;69.87;43039.44;5133837;27;20283;-64
2023/07/26 02:34:10;;;;;;;22.00;20.90;;;;;;;-141.02;70.33;43037.50;5134090;27;20220;-61
2023/07/26 02:36:37;;;;;;;22.30;21.20;;;;;;;-141.02;69.41;43043.28;5133467;27;20323;-61
2023/07/26 02:39:04;;;;;;;21.98;20.88;;;;;;;-141.02;69.93;43016.41;5133951;27;20189;-63
2023/07/26 02:41:31;;;;;;;22.15;21.15;;;;;;;-141.02;68.39;43004.88;5133574;27;20203;-68
2023/07/26 02:43:59;;;;;;;21.88;20.88;;;;;;;-141.02;68.49;42979.91;5133959;27;20271;-59
2023/07/26 02:46:26;;;;;;;22.40;21.40;;;;;;;-141.02;68.92;42989.53;5133488;27;20279;-66
2023/07/26 02:48:55;;;;;;;21.95;20.95;;;;;;;-141.02;69.02;43031.75;5133874;27;20257;-63
2023/07/26 02:51:22;;;;;;;21.70;20.70;;;;;;;-141.02;69.28;43020.25;5133647;27;20224;-67
2023/07/26 02:53:48;;;;;;;20.70;19.75;;;;;;;-141.02;69.38;43052.88;5133360;27;20283;-66
2023/07/26 02:56:15;;;;;;;21.20;20.20;;;;;;;-141.02;69.92;43039.44;5133360;27;20193;-65
2023/07/26 02:58:42;;;;;;;21.02;20.02;;;;;;;-141.02;69.80;43058.63;5133600;27;20285;-67
2023/07/26 03:01:24;;;;;;;21.45;20.45;;;;;;;-141.02;69.75;43089.34;5133604;27;20262;-66
2023/07/26 03:03:51;;;;;;;20.05;19.10;;;;;;;-141.02;70.27;43127.75;5133521;27;20276;-66
2023/07/26 03:06:18;;;;;;;21.20;20.20;;;;;;;-141.02;69.97;43164.22;5133593;27;20279;-62
2023/07/26 03:08:45;;;;;;;21.50;20.50;;;;;;;-141.02;69.81;43194.94;5133507;27;20192;-67
2023/07/26 03:11:12;;;;;;;20.40;19.35;;;;;;;-141.02;70.04;43219.91;5133435;27;20224;-64
2023/07/26 03:13:40;;;;;;;21.15;20.15;;;;;;;-141.02;70.68;43208.38;5133443;27;20192;-64
2023/07/26 03:16:18;;;;;;;21.80;20.80;;;;;;;-141.02;71.55;43283.28;5133092;27;20200;-66
2023/07/26 03:18:46;;;;;;;20.48;19.40;;;;;;;-141.02;72.69;43317.81;5133134;27;20198;-67
2023/07/26 03:21:13;;;;;;;19.80;18.80;;;;;;;-141.02;73.11;43340.88;5133376;27;20319;-65
2023/07/26 03:23:40;;;;;;;21.08;20.08;;;;;;;-141.02;73.77;43342.78;5133317;27;20196;-66
2023/07/26 03:26:07;;;;;;;20.23;19.33;;;;;;;-141.02;73.15;43354.31;5133273;27;20230;-64
2023/07/26 03:28:37;;;;;;;20.23;19.33;;;;;;;-141.02;73.87;43350.47;5132924;27;20662;-66
2023/07/26 03:31:04;;;;;;;21.08;20.08;;;;;;;-141.02;74.03;43337.03;5132889;27;20242;-64
2023/07/26 03:33:31;;;;;;;20.63;19.73;;;;;;;-141.02;73.73;43385.03;5133166;27;20197;-66
2023/07/26 03:36:00;;;;;;;20.38;19.48;;;;;;;-141.02;73.84;43392.72;5133067;27;20726;-67
2023/07/26 03:39:05;;;;;;;20.58;19.67;;;;;;;-141.02;74.99;43354.31;5139563;27;20267;-62
2023/07/26 03:41:33;;;;;;;19.90;19.00;;;;;;;-141.02;75.01;43379.28;5139669;27;20752;-59
2023/07/26 03:44:11;;;;;;;19.50;18.60;;;;;;;-141.02;74.86;43413.84;5139723;27;20196;-63
2023/07/26 03:47:12;;;;;;;18.67;17.83;;;;;;;-141.02;75.13;43475.28;5139628;27;20195;-64
2023/07/26 03:49:56;;;;;;;18.65;17.75;;;;;;;-141.02;75.32;43603.94;5140635;27;20193;-65
2023/07/26 03:52:25;;;;;;;20.23;19.33;;;;;;;-141.02;74.74;43705.69;5139916;27;20251;-63
2023/07/26 03:54:54;;;;;;;20.23;19.33;;;;;;;-141.02;74.06;43792.09;5139574;27;20276;-66
2023/07/26 03:57:22;;;;;;;17.77;16.98;;;;;;;-141.02;73.64;43843.97;5139573;27;20192;-61
2023/07/26 03:59:49;;;;;;;20.13;19.23;;;;;;;-141.02;72.58;43842.03;5140260;27;20243;-65
2023/07/26 04:02:16;;;;;;;20.35;19.45;;;;;;;-141.02;72.64;43880.44;5139550;27;20198;-64
2023/07/26 04:04:45;;;;;;;20.55;19.65;;;;;;;-141.02;72.33;43882.38;5139477;27;20654;-65
2023/07/26 04:07:12;;;;;;;19.20;18.40;;;;;;;-141.02;71.90;43907.31;5139463;27;20617;-65
2023/07/26 04:13:02;;;;;;;19.13;18.23;;;;;;;-141.02;71.08;43968.78;5139367;27;20214;-66
2023/07/26 04:16:02;;;;;;;20.23;19.33;;;;;;;-141.02;69.38;43974.53;5139669;27;20199;-64
2023/07/26 04:18:29;;;;;;;20.10;19.20;;;;;;;-141.02;69.52;44007.19;5139293;27;20563;-65
2023/07/26 04:21:40;;;;;;;20.70;19.80;;;;;;;-141.02;68.76;44036.00;5139371;27;20284;-66
2023/07/26 04:24:07;;;;;;;21.02;20.13;;;;;;;-141.02;68.69;44016.78;5139502;27;20215;-66
2023/07/26 04:26:34;;;;;;;21.27;20.30;;;;;;;-141.02;68.38;44066.72;5139296;27;20624;-66
2023/07/26 04:29:02;;;;;;;21.08;20.17;;;;;;;-141.02;66.81;44126.25;5139637;27;20280;-65
2023/07/26 04:34:51;;;;;;;20.88;19.98;;;;;;;-141.02;65.67;44172.34;5139429;27;20229;-65
2023/07/26 04:37:18;;;;;;;20.95;20.05;;;;;;;-141.02;66.95;44137.78;5139025;27;20224;-63
2023/07/26 04:39:47;;;;;;;20.98;20.08;;;;;;;-141.02;65.38;44156.97;5139209;27;20227;-60
2023/07/26 04:42:16;;;;;;;21.60;20.70;;;;;;;-141.02;65.87;44208.84;5139475;27;20192;-60
2023/07/26 04:48:07;;;;;;;20.65;19.75;;;;;;;-141.02;66.19;44222.28;5137374;27;20219;-62
2023/07/26 04:50:34;;;;;;;21.20;20.30;;;;;;;-141.02;65.38;44210.75;5136338;27;20230;-64
2023/07/26 04:53:01;;;;;;;21.05;20.15;;;;;;;-141.02;66.21;44199.22;5136154;27;20276;-60
2023/07/26 04:55:29;;;;;;;21.25;20.35;;;;;;;-141.02;67.35;44172.34;5136021;27;20201;-62
2023/07/26 04:57:57;;;;;;;20.75;19.85;;;;;;;-141.02;65.89;44210.75;5136015;27;20192;-60
2023/07/26 05:00:24;;;;;;;20.70;19.80;;;;;;;-141.02;67.31;44187.72;5135966;27;20299;-66
2023/07/26 05:02:51;;;;;;;19.88;18.98;;;;;;;-141.02;67.17;44233.81;5135547;27;20198;-60
2023/07/26 05:05:20;;;;;;;20.60;19.70;;;;;;;-141.02;65.46;44260.69;5135582;27;20614;-63
2023/07/26 05:07:47;;;;;;;21.10;20.20;;;;;;;-141.02;65.45;44243.41;5135755;27;20224;-67
2023/07/26 05:10:14;;;;;;;20.65;19.75;;;;;;;-141.02;64.93;44293.34;5135743;27;20241;-60
2023/07/26 05:12:41;;;;;;;21.08;20.17;;;;;;;-141.02;63.90;44329.84;5135729;27;20276;-62
2023/07/26 05:15:09;;;;;;;21.38;20.48;;;;;;;-141.02;65.42;44326.00;5135340;27;20747;-60
2023/07/26 05:17:36;;;;;;;20.13;19.23;;;;;;;-141.02;63.07;44326.00;5135424;27;20283;-61
2023/07/26 05:20:03;;;;;;;19.48;18.65;;;;;;;-141.02;62.68;44347.13;5135462;27;20196;-61
2023/07/26 05:22:31;;;;;;;19.58;18.67;;;;;;;-141.02;64.56;44360.56;5135491;27;20231;-60
2023/07/26 05:24:58;;;;;;;19.30;18.40;;;;;;;-141.02;64.71;44368.25;5135514;27;20330;-62
2023/07/26 05:27:25;;;;;;;19.67;18.77;;;;;;;-141.02;64.35;44397.06;5135103;27;20724;-61
2023/07/26 05:29:54;;;;;;;19.52;18.63;;;;;;;-141.02;63.26;44414.34;5135196;27;20654;-62
2023/07/26 05:32:21;;;;;;;19.55;18.65;;;;;;;-141.02;64.13;44368.25;5135261;27;20231;-64
2023/07/26 05:34:48;;;;;;;19.63;18.73;;;;;;;-141.02;64.42;44299.09;5135379;27;20654;-64
2023/07/26 05:37:15;;;;;;;19.55;18.75;;;;;;;-141.02;64.26;44302.94;5134817;27;20255;-60
2023/07/26 05:39:43;;;;;;;20.65;19.75;;;;;;;-141.02;65.45;44247.25;5134943;27;20637;-60
2023/07/26 05:42:10;;;;;;;20.23;19.33;;;;;;;-141.02;66.46;44214.59;5135224;27;20224;-59
2023/07/26 05:44:39;;;;;;;20.30;19.40;;;;;;;-141.02;66.43;44264.53;5134809;27;20678;-61
2023/07/26 05:47:06;;;;;;;19.77;18.92;;;;;;;-141.02;66.05;44249.16;5134754;27;20678;-61
2023/07/26 05:49:33;;;;;;;19.63;18.83;;;;;;;-141.02;65.41;44253.00;5135005;27;20196;-64
2023/07/26 05:52:00;;;;;;;18.58;17.77;;;;;;;-141.02;67.53;44206.91;5134920;27;20224;-66
2023/07/26 05:54:27;;;;;;;19.40;18.60;;;;;;;-141.02;67.54;44220.38;5134623;27;20235;-61
2023/07/26 05:56:55;;;;;;;19.92;19.02;;;;;;;-141.02;67.71;44210.75;5134566;27;20656;-61
2023/07/26 05:59:22;;;;;;;21.42;20.42;;;;;;;-141.02;67.07;44206.91;5134463;27;20196;-60
2023/07/26 06:01:49;;;;;;;20.75;19.85;;;;;;;-141.02;66.73;44210.75;5134394;27;20675;-65
2023/07/26 06:04:16;;;;;;;20.83;19.92;;;;;;;-141.02;66.96;44189.63;5134754;27;20292;-64
2023/07/26 06:06:43;;;;;;;19.23;18.42;;;;;;;-141.02;65.47;44226.13;5134269;27;20283;-62
2023/07/26 06:09:10;;;;;;;20.80;19.90;;;;;;;-141.02;65.48;44256.84;5134676;27;20219;-66
2023/07/26 06:11:37;;;;;;;20.20;19.30;;;;;;;-141.02;67.06;44241.47;5134530;27;20263;-65
2023/07/26 06:14:06;;;;;;;20.20;19.30;;;;;;;-141.02;66.13;44245.31;5134497;27;20218;-64
2023/07/26 06:16:33;;;;;;;20.63;19.73;;;;;;;-141.02;65.28;44260.69;5134478;27;20271;-66
2023/07/26 06:19:00;;;;;;;20.55;19.65;;;;;;;-141.02;63.66;44276.06;5134981;27;20200;-66
2023/07/26 06:21:27;;;;;;;20.25;19.35;;;;;;;-141.02;64.58;44253.00;5134082;27;20725;-62
2023/07/26 06:23:54;;;;;;;20.33;19.42;;;;;;;-141.02;65.31;44253.00;5134098;27;20203;-62
2023/07/26 06:26:21;;;;;;;20.55;19.65;;;;;;;-141.02;63.70;44291.41;5133921;27;20575;-64
2023/07/26 06:28:48;;;;;;;20.80;19.90;;;;;;;-141.02;63.45;44316.38;5134348;27;20192;-66
2023/07/26 06:31:17;;;;;;;20.90;19.90;;;;;;;-141.02;62.54;44387.44;5134114;27;20246;-65
2023/07/26 06:33:44;;;;;;;20.35;19.45;;;;;;;-141.02;61.58;44379.78;5133870;27;20237;-66
2023/07/26 06:36:11;;;;;;;42.85;40.75;;;;;;;-141.02;60.74;44379.78;5133746;27;20275;-65
2023/07/26 06:38:39;;;;;;;48.80;46.40;;;;;;;-141.02;62.07;44375.94;5134146;27;20216;-66
2023/07/26 06:41:06;;;;;;;38.17;36.28;;;;;;;-141.02;60.59;44379.78;5133999;27;20265;-64
2023/07/26 06:43:33;;;;;;;19.73;18.73;;;;;;;-141.02;59.81;44418.19;5133870;27;20244;-66
2023/07/26 06:46:00;;;;;;;19.77;18.67;;;;;;;-141.02;59.46;44460.44;5133936;27;20276;-66
2023/07/26 06:48:29;;;;;;;18.92;17.92;;;;;;;-141.02;59.64;44437.38;5133758;27;20265;-63
2023/07/26 06:50:56;;;;;;;19.70;18.60;;;;;;;-141.02;59.08;44443.16;5133478;27;20314;-64
2023/07/26 06:53:23;;;;;;;19.83;18.73;;;;;;;-141.02;59.46;44479.66;5133786;27;20265;-67
2023/07/26 06:55:50;;;;;;;20.35;19.25;;;;;;;-141.02;58.45;44491.16;5133642;27;20666;-66
2023/07/26 06:58:17;;;;;;;20.33;19.13;;;;;;;-141.02;58.62;44483.47;5133376;27;20569;-67
2023/07/26 07:00:44;;;;;;;20.52;19.40;;;;;;;-141.02;57.26;44521.91;5133627;27;20222;-62
2023/07/26 07:03:10;;;;;;;21.30;20.10;;;;;;;-141.02;57.40;44541.09;5133614;27;20215;-62
2023/07/26 07:05:39;;;;;;;20.58;19.48;;;;;;;-141.02;57.00;44548.78;5133629;27;20197;-66
2023/07/26 07:08:06;;;;;;;19.95;18.85;;;;;;;-141.02;57.87;44533.41;5133618;27;20192;-67
2023/07/26 07:10:33;;;;;;;20.40;19.30;;;;;;;-141.02;57.52;44564.16;5133925;27;20284;-67
2023/07/26 07:13:00;;;;;;;19.75;18.65;;;;;;;-141.02;56.18;44621.78;5132358;27;20231;-60
2023/07/26 07:15:27;;;;;;;20.00;18.90;;;;;;;-141.02;56.64;44606.41;5133134;27;20705;-60
2023/07/26 07:17:54;;;;;;;20.60;19.50;;;;;;;-141.02;57.21;44598.72;5133090;27;20653;-65
2023/07/26 07:20:21;;;;;;;20.48;19.38;;;;;;;-141.02;56.60;44637.16;5133048;27;20200;-67
2023/07/26 07:22:53;;;;;;;20.35;19.25;;;;;;;-141.02;56.30;44625.63;5133397;27;20275;-63
2023/07/26 07:25:20;;;;;;;21.45;20.27;;;;;;;-141.02;56.48;44617.94;5133358;27;20286;-66
2023/07/26 07:27:46;;;;;;;20.50;19.40;;;;;;;-141.02;55.05;44667.88;5133321;27;20228;-66
2023/07/26 07:30:14;;;;;;;19.40;18.30;;;;;;;-141.02;56.05;44679.41;5132920;27;20776;-67
2023/07/26 07:32:41;;;;;;;20.77;19.67;;;;;;;-141.02;56.14;44717.81;5132830;27;20224;-65
2023/07/26 07:35:09;;;;;;;20.75;19.65;;;;;;;-141.02;55.49;44760.06;5133224;27;20199;-66
2023/07/26 07:37:36;;;;;;;35.20;33.50;;;;;;;-141.02;54.99;44813.84;5132659;28;20332;-67
2023/07/26 07:40:07;;;;;;;22.10;21.00;;;;;;;-141.02;54.73;44798.50;5132876;28;20231;-63
2023/07/26 07:42:35;;;;;;;21.30;20.20;;;;;;;-141.02;55.22;44852.28;5133098;27;20188;-66
2023/07/26 07:45:02;;;;;;;20.80;19.70;;;;;;;-141.02;56.00;44790.81;5132863;28;20580;-67
2023/07/26 07:47:29;;;;;;;41.33;39.03;;;;;;;-141.02;55.85;44848.44;5133050;28;20224;-60
2023/07/26 07:49:56;;;;;;;20.95;19.95;;;;;;;-141.02;54.22;44890.69;5132826;28;20239;-66
2023/07/26 07:52:23;;;;;;;20.92;19.83;;;;;;;-141.02;55.40;44846.50;5132986;28;20232;-66
2023/07/26 07:54:50;;;;;;;21.13;20.02;;;;;;;-141.02;56.44;44767.75;5132744;27;20204;-64
2023/07/26 07:57:18;;;;;;;20.88;19.88;;;;;;;-141.02;54.94;44744.72;5132802;27;20736;-66
2023/07/26 07:59:45;;;;;;;22.27;21.10;;;;;;;-141.02;55.12;44836.91;5132599;28;20730;-62
2023/07/26 08:02:12;;;;;;;43.97;41.38;;;;;;;-141.02;55.69;44802.34;5133038;28;20276;-62
2023/07/26 08:04:39;;;;;;;44.55;41.95;;;;;;;-141.02;55.29;44894.53;5132642;28;20289;-61
2023/07/26 08:07:06;;;;;;;37.75;35.65;;;;;;;-141.02;52.60;44936.78;5132967;28;20188;-61
2023/07/26 08:09:33;;;;;;;42.67;40.17;;;;;;;-141.02;52.93;44931.03;5132473;28;20256;-63
2023/07/26 08:12:00;;;;;;;44.00;41.40;;;;;;;-141.02;53.75;44950.25;5132402;28;20234;-66
2023/07/26 08:14:29;;;;;;;40.47;38.08;;;;;;;-141.02;52.47;44990.59;5132516;28;20242;-62
2023/07/26 08:16:56;;;;;;;40.60;38.20;;;;;;;-141.02;52.91;45021.31;5132365;28;20224;-66
2023/07/26 08:19:23;;;;;;;43.90;41.28;;;;;;;-141.02;51.46;45063.59;5132422;28;20601;-61
2023/07/26 08:21:50;;;;;;;53.92;50.58;;;;;;;-141.02;51.45;45086.63;5132736;28;20420;-63
2023/07/26 08:24:17;;;;;;;44.80;42.03;;;;;;;-141.02;51.61;45005.94;5135671;27;20642;-60
2023/07/26 08:26:44;;;;;;;21.67;20.48;;;;;;;-141.02;52.55;45009.78;5136387;27;20227;-60
2023/07/26 08:29:11;;;;;;;20.83;19.63;;;;;;;-141.02;51.83;45009.78;5136269;27;20231;-61
2023/07/26 08:31:40;;;;;;;21.30;20.17;;;;;;;-141.02;51.38;45048.22;5136124;27;20246;-61
2023/07/26 08:34:07;;;;;;;20.02;18.92;;;;;;;-141.02;51.08;45121.22;5137195;27;20292;-61
2023/07/26 08:36:34;;;;;;;20.67;19.48;;;;;;;-141.02;49.72;45175.00;5135972;27;20323;-62
2023/07/26 08:39:01;;;;;;;20.55;19.35;;;;;;;-141.02;51.03;45117.38;5136391;27;20279;-60
2023/07/26 08:41:29;;;;;;;21.08;19.98;;;;;;;-141.02;50.18;45151.94;5136033;27;20286;-60
2023/07/26 08:43:59;;;;;;;20.17;19.02;;;;;;;-141.02;51.36;45130.81;5136034;27;20227;-61
2023/07/26 08:46:28;;;;;;;20.77;19.52;;;;;;;-141.02;49.54;45105.84;5135890;27;20272;-60
2023/07/26 08:48:58;;;;;;;20.02;18.83;;;;;;;-141.02;49.97;45113.53;5136301;27;20636;-62
2023/07/26 08:51:26;;;;;;;19.95;18.75;;;;;;;-141.02;50.58;45063.59;5135786;27;20196;-61
2023/07/26 08:53:53;;;;;;;20.13;18.92;;;;;;;-141.02;50.38;45052.06;5136186;27;20639;-61
2023/07/26 08:56:20;;;;;;;20.90;19.70;;;;;;;-141.02;50.47;45224.94;5135780;27;20765;-61
2023/07/26 08:58:47;;;;;;;55.22;51.92;;;;;;;-141.02;50.05;45236.47;5135638;27;20188;-62
2023/07/26 09:01:14;;;;;;;67.20;63.30;;;;;;;-141.02;49.57;45301.78;5135624;27;20733;-67
2023/07/26 09:03:42;;;;;;;53.90;50.25;;;;;;;-141.02;49.51;45476.63;5135886;27;20230;-65
2023/07/26 09:06:10;;;;;;;46.05;43.05;;;;;;;-141.02;49.25;45447.81;5135922;27;20337;-67
2023/07/26 09:08:37;;;;;;;21.02;19.73;;;;;;;-141.02;49.54;45351.75;5135837;27;20227;-65
2023/07/26 09:11:20;;;;;;;20.65;19.45;;;;;;;-141.02;50.37;45286.44;5135717;27;20219;-60
2023/07/26 09:13:53;;;;;;;20.85;19.65;;;;;;;-141.02;49.71;45359.44;5135432;27;20680;-61
2023/07/26 09:16:21;;;;;;;20.80;19.50;;;;;;;-141.02;49.90;45367.13;5135751;27;20196;-62
2023/07/26 09:18:59;;;;;;;20.58;19.30;;;;;;;-141.02;50.05;45405.53;5135407;27;20196;-65
2023/07/26 09:21:30;;;;;;;20.35;19.15;;;;;;;-141.02;49.43;45351.75;5135294;27;20192;-60
2023/07/26 09:23:58;;;;;;;20.50;19.30;;;;;;;-141.02;50.50;44829.22;5135225;27;20184;-61
2023/07/26 09:26:34;;;;;;;43.13;40.45;;;;;;;-141.02;50.09;45296.03;5135538;27;20627;-61
2023/07/26 09:29:02;;;;;;;20.48;19.27;;;;;;;-141.02;49.44;45470.88;5135493;27;20195;-61
2023/07/26 09:31:32;;;;;;;27.80;26.30;;;;;;;-141.02;48.73;45605.34;5135475;27;20271;-63
2023/07/26 09:34:03;;;;;;;20.27;19.10;;;;;;;-141.02;49.34;45538.09;5134960;27;20191;-62
2023/07/26 09:36:43;;;;;;;20.25;19.15;;;;;;;-141.02;48.84;45321.00;5134844;27;20231;-67
2023/07/26 09:39:10;;;;;;;20.33;19.23;;;;;;;-141.02;49.00;45486.22;5134872;27;20283;-68
2023/07/26 09:41:37;;;;;;;19.83;18.73;;;;;;;-141.02;49.16;45536.19;5135161;27;20275;-63
2023/07/26 09:44:05;;;;;;;19.60;18.50;;;;;;;-141.02;49.46;45290.28;5129041;27;20310;-63
2023/07/26 09:46:46;;;;;;;20.00;18.90;;;;;;;-141.02;50.34;45319.09;5134526;27;20245;-65
2023/07/26 09:49:13;;;;;;;19.73;18.63;;;;;;;-141.02;50.03;45288.34;5132767;27;20195;-62
2023/07/26 09:51:42;;;;;;;19.88;18.77;;;;;;;-141.02;51.11;45286.44;5123800;27;20225;-62
2023/07/26 09:54:10;;;;;;;19.35;18.25;;;;;;;-141.02;50.31;45390.16;5134345;27;20574;-62
2023/07/26 09:56:40;;;;;;;19.98;18.83;;;;;;;-141.02;49.56;45520.81;5134237;27;20199;-63
2023/07/26 09:59:10;;;;;;;20.50;19.30;;;;;;;-141.02;49.90;44854.19;5134493;27;20198;-67
2023/07/26 10:01:40;;;;;;;20.73;19.52;;;;;;;-141.02;50.35;45405.53;5133920;27;20196;-62
2023/07/26 10:04:12;;;;;;;20.60;19.40;;;;;;;-141.02;49.33;45386.31;5131799;27;20195;-64
2023/07/26 10:06:41;;;;;;;20.77;19.58;;;;;;;-141.02;49.83;45359.44;5134519;27;20180;-62
2023/07/26 10:09:13;;;;;;;20.27;19.17;;;;;;;-141.02;50.27;45405.53;5133346;27;20662;-67
2023/07/26 10:11:43;;;;;;;20.15;19.05;;;;;;;-141.02;50.90;45378.66;5131907;27;20196;-61
2023/07/26 10:14:11;;;;;;;20.33;19.13;;;;;;;-141.02;50.60;45478.53;5132764;27;20195;-66
2023/07/26 10:16:38;;;;;;;29.45;27.85;;;;;;;-141.02;51.80;45201.91;5133237;27;20200;-61
2023/07/26 10:19:06;;;;;;;20.58;19.38;;;;;;;-141.02;51.44;45263.38;5133013;27;20188;-62
2023/07/26 10:21:35;;;;;;;20.33;19.13;;;;;;;-141.02;51.75;45175.00;5133118;27;20224;-63
2023/07/26 10:24:04;;;;;;;20.90;19.70;;;;;;;-141.02;50.58;45299.88;5132258;27;20211;-62
2023/07/26 10:26:34;;;;;;;20.80;19.60;;;;;;;-141.02;51.06;45294.13;5132862;27;20199;-66
2023/07/26 10:29:02;;;;;;;20.00;18.90;;;;;;;-141.02;52.33;45198.06;5131918;27;20192;-67
2023/07/26 10:31:30;;;;;;;21.20;20.10;;;;;;;-141.02;51.58;45357.50;5131981;27;20227;-63
2023/07/26 10:33:58;;;;;;;20.58;19.48;;;;;;;-141.02;50.27;45294.13;5129867;27;20294;-67
2023/07/26 10:36:30;;;;;;;20.10;18.90;;;;;;;-141.02;51.14;45163.47;5131847;27;20220;-67
2023/07/26 10:38:57;;;;;;;20.17;19.08;;;;;;;-141.02;50.85;45271.06;5132928;27;20191;-67
2023/07/26 10:41:25;;;;;;;19.65;18.65;;;;;;;-141.02;49.17;45440.13;5133870;27;20223;-64
2023/07/26 10:44:05;;;;;;;20.67;19.48;;;;;;;-141.02;49.44;45543.88;5127416;27;20196;-65
2023/07/26 10:46:48;;;;;;;20.25;19.05;;;;;;;-141.02;49.63;44863.81;5131112;27;20188;-67
2023/07/26 10:49:20;;;;;;;20.27;19.08;;;;;;;-141.02;50.82;45347.91;5131494;27;20274;-66
2023/07/26 10:51:56;;;;;;;20.50;19.40;;;;;;;-141.02;50.39;45409.38;5131777;27;20192;-68
2023/07/26 10:54:34;;;;;;;53.38;50.20;;;;;;;-141.02;50.61;45467.03;5131525;27;20192;-68
2023/07/26 10:57:15;;;;;;;70.80;67.10;;;;;;;-141.02;49.50;45601.50;5132044;27;20202;-68
2023/07/26 11:00:14;;;;;;;43.40;40.70;;;;;;;-141.02;49.13;45520.81;5130976;27;20274;-68
2023/07/26 11:02:44;;;;;;;38.50;36.28;;;;;;;-141.02;49.90;45563.09;5110361;27;20199;-68
2023/07/26 11:05:14;;;;;;;40.00;37.65;;;;;;;-141.02;49.24;45559.25;5132827;27;20235;-67
2023/07/26 11:07:54;;;;;;;28.75;27.25;;;;;;;-141.02;49.32;45543.88;5131055;27;20199;-68
2023/07/26 11:10:23;;;;;;;21.45;20.35;;;;;;;-141.02;49.39;45701.41;5131855;27;20183;-69
2023/07/26 11:12:52;;;;;;;21.40;20.30;;;;;;;-141.02;49.19;45697.56;5133053;27;20673;-69
2023/07/26 11:15:30;;;;;;;21.25;20.05;;;;;;;-141.02;48.62;45737.94;5131590;27;20250;-66
2023/07/26 11:17:57;;;;;;;21.38;20.17;;;;;;;-141.02;48.48;45150.03;5131839;27;20198;-69
2023/07/26 11:20:24;;;;;;;21.02;19.83;;;;;;;-141.02;49.14;45601.50;5133367;27;20196;-67
2023/07/26 11:22:52;;;;;;;20.60;19.35;;;;;;;-141.02;48.99;45563.09;5133060;27;20291;-68
2023/07/26 11:25:20;;;;;;;20.65;19.45;;;;;;;-141.02;48.15;45668.75;5133098;27;20744;-66